sensor_id;sensor_type;location;lat;lon;timestamp;pressure;altitude;pressure_sealevel;temperature;humidity
9746;BME280;4912;50.836;12.958;2022-12-18T00:00:54;99179.94;;;-5.33;74.68
9746;BME280;4912;50.836;12.958;2022-12-18T00:03:25;99177.91;;;-5.37;74.13
9746;BME280;4912;50.836;12.958;2022-12-18T00:05:55;99182.50;;;-5.37;74.09
9746;BME280;4912;50.836;12.958;2022-12-18T00:08:26;99178.56;;;-5.40;73.74
9746;BME280;4912;50.836;12.958;2022-12-18T00:11:03;99184.63;;;-5.43;72.68
9746;BME280;4912;50.836;12.958;2022-12-18T00:13:35;99188.16;;;-5.51;72.31
9746;BME280;4912;50.836;12.958;2022-12-18T00:16:10;99186.78;;;-5.57;72.20
9746;BME280;4912;50.836;12.958;2022-12-18T00:18:42;99191.38;;;-5.57;72.06
9746;BME280;4912;50.836;12.958;2022-12-18T00:21:13;99184.28;;;-5.62;72.17
9746;BME280;4912;50.836;12.958;2022-12-18T00:23:45;99182.69;;;-5.63;72.38
9746;BME280;4912;50.836;12.958;2022-12-18T00:26:17;99184.47;;;-5.67;72.89
9746;BME280;4912;50.836;12.958;2022-12-18T00:28:57;99186.06;;;-5.66;72.91
9746;BME280;4912;50.836;12.958;2022-12-18T00:31:33;99191.88;;;-5.64;72.83
9746;BME280;4912;50.836;12.958;2022-12-18T00:34:05;99191.56;;;-5.62;72.88
9746;BME280;4912;50.836;12.958;2022-12-18T00:36:38;99193.78;;;-5.64;73.30
9746;BME280;4912;50.836;12.958;2022-12-18T00:39:11;99194.59;;;-5.64;73.23
9746;BME280;4912;50.836;12.958;2022-12-18T00:41:46;99196.84;;;-5.66;72.71
9746;BME280;4912;50.836;12.958;2022-12-18T00:44:35;99199.25;;;-5.73;72.41
9746;BME280;4912;50.836;12.958;2022-12-18T00:47:08;99200.22;;;-5.78;72.33
9746;BME280;4912;50.836;12.958;2022-12-18T00:49:39;99211.16;;;-5.83;72.78
9746;BME280;4912;50.836;12.958;2022-12-18T00:52:09;99211.53;;;-5.84;72.91
9746;BME280;4912;50.836;12.958;2022-12-18T00:54:40;99208.69;;;-5.88;72.78
9746;BME280;4912;50.836;12.958;2022-12-18T00:57:10;99211.03;;;-5.86;72.59
9746;BME280;4912;50.836;12.958;2022-12-18T00:59:40;99209.03;;;-5.89;72.09
9746;BME280;4912;50.836;12.958;2022-12-18T01:02:13;99207.47;;;-5.90;71.66
9746;BME280;4912;50.836;12.958;2022-12-18T01:04:44;99211.09;;;-5.95;71.75
9746;BME280;4912;50.836;12.958;2022-12-18T01:07:19;99202.09;;;-5.99;71.73
9746;BME280;4912;50.836;12.958;2022-12-18T01:09:49;99200.88;;;-6.01;72.00
9746;BME280;4912;50.836;12.958;2022-12-18T01:12:19;99200.38;;;-6.03;72.19
9746;BME280;4912;50.836;12.958;2022-12-18T01:14:50;99199.28;;;-6.02;72.42
9746;BME280;4912;50.836;12.958;2022-12-18T01:17:22;99199.47;;;-6.07;72.18
9746;BME280;4912;50.836;12.958;2022-12-18T01:19:53;99194.72;;;-6.10;71.84
9746;BME280;4912;50.836;12.958;2022-12-18T01:22:23;99196.47;;;-6.14;71.74
9746;BME280;4912;50.836;12.958;2022-12-18T01:24:54;99197.09;;;-6.17;71.89
9746;BME280;4912;50.836;12.958;2022-12-18T01:27:24;99210.13;;;-6.19;72.40
9746;BME280;4912;50.836;12.958;2022-12-18T01:29:55;99212.47;;;-6.18;73.16
9746;BME280;4912;50.836;12.958;2022-12-18T01:32:29;99212.03;;;-6.20;73.55
9746;BME280;4912;50.836;12.958;2022-12-18T01:35:01;99215.03;;;-6.22;73.32
9746;BME280;4912;50.836;12.958;2022-12-18T01:37:32;99212.66;;;-6.23;72.96
9746;BME280;4912;50.836;12.958;2022-12-18T01:40:04;99209.16;;;-6.24;72.59
9746;BME280;4912;50.836;12.958;2022-12-18T01:42:36;99216.81;;;-6.26;71.93
9746;BME280;4912;50.836;12.958;2022-12-18T01:45:20;99225.19;;;-6.27;71.20
9746;BME280;4912;50.836;12.958;2022-12-18T01:47:57;99218.41;;;-6.33;70.71
9746;BME280;4912;50.836;12.958;2022-12-18T01:50:31;99219.81;;;-6.36;70.94
9746;BME280;4912;50.836;12.958;2022-12-18T01:53:10;99226.50;;;-6.42;71.01
9746;BME280;4912;50.836;12.958;2022-12-18T01:55:45;99230.31;;;-6.43;71.04
9746;BME280;4912;50.836;12.958;2022-12-18T01:58:18;99233.00;;;-6.43;70.76
9746;BME280;4912;50.836;12.958;2022-12-18T02:00:50;99224.31;;;-6.48;70.81
9746;BME280;4912;50.836;12.958;2022-12-18T02:03:23;99222.44;;;-6.48;70.83
9746;BME280;4912;50.836;12.958;2022-12-18T02:06:00;99233.50;;;-6.49;71.18
9746;BME280;4912;50.836;12.958;2022-12-18T02:08:38;99240.00;;;-6.50;71.83
9746;BME280;4912;50.836;12.958;2022-12-18T02:11:17;99247.28;;;-6.51;72.07
9746;BME280;4912;50.836;12.958;2022-12-18T02:13:56;99256.16;;;-6.50;72.22
9746;BME280;4912;50.836;12.958;2022-12-18T02:16:39;99246.16;;;-6.50;72.28
9746;BME280;4912;50.836;12.958;2022-12-18T02:19:26;99244.09;;;-6.53;72.10
9746;BME280;4912;50.836;12.958;2022-12-18T02:22:19;99245.38;;;-6.50;71.61
9746;BME280;4912;50.836;12.958;2022-12-18T02:25:10;99250.63;;;-6.54;71.19
9746;BME280;4912;50.836;12.958;2022-12-18T02:27:50;99249.81;;;-6.54;71.00
9746;BME280;4912;50.836;12.958;2022-12-18T02:30:22;99247.44;;;-6.56;70.90
9746;BME280;4912;50.836;12.958;2022-12-18T02:32:54;99237.00;;;-6.57;70.60
9746;BME280;4912;50.836;12.958;2022-12-18T02:35:28;99237.66;;;-6.60;70.35
9746;BME280;4912;50.836;12.958;2022-12-18T02:38:01;99243.81;;;-6.60;70.17
9746;BME280;4912;50.836;12.958;2022-12-18T02:40:36;99246.03;;;-6.62;70.25
9746;BME280;4912;50.836;12.958;2022-12-18T02:43:12;99241.28;;;-6.65;70.38
9746;BME280;4912;50.836;12.958;2022-12-18T02:45:48;99233.53;;;-6.67;70.55
9746;BME280;4912;50.836;12.958;2022-12-18T02:48:24;99245.09;;;-6.66;70.86
9746;BME280;4912;50.836;12.958;2022-12-18T02:51:03;99235.88;;;-6.65;70.49
9746;BME280;4912;50.836;12.958;2022-12-18T02:53:43;99235.75;;;-6.69;70.02
9746;BME280;4912;50.836;12.958;2022-12-18T02:56:21;99230.53;;;-6.74;70.30
9746;BME280;4912;50.836;12.958;2022-12-18T02:58:59;99230.53;;;-6.74;70.06
9746;BME280;4912;50.836;12.958;2022-12-18T03:01:45;99235.59;;;-6.72;70.21
9746;BME280;4912;50.836;12.958;2022-12-18T03:04:23;99232.56;;;-6.71;70.85
9746;BME280;4912;50.836;12.958;2022-12-18T03:06:59;99233.38;;;-6.70;71.51
9746;BME280;4912;50.836;12.958;2022-12-18T03:09:36;99234.97;;;-6.69;71.97
9746;BME280;4912;50.836;12.958;2022-12-18T03:12:20;99230.22;;;-6.72;71.95
9746;BME280;4912;50.836;12.958;2022-12-18T03:15:01;99235.00;;;-6.78;71.67
9746;BME280;4912;50.836;12.958;2022-12-18T03:17:44;99235.59;;;-6.81;71.18
9746;BME280;4912;50.836;12.958;2022-12-18T03:20:26;99244.00;;;-6.82;71.39
9746;BME280;4912;50.836;12.958;2022-12-18T03:23:04;99234.34;;;-6.83;71.54
9746;BME280;4912;50.836;12.958;2022-12-18T03:25:46;99240.06;;;-6.85;71.90
9746;BME280;4912;50.836;12.958;2022-12-18T03:28:21;99241.94;;;-6.85;70.93
9746;BME280;4912;50.836;12.958;2022-12-18T03:31:02;99237.19;;;-6.88;70.35
9746;BME280;4912;50.836;12.958;2022-12-18T03:33:38;99238.78;;;-6.87;70.06
9746;BME280;4912;50.836;12.958;2022-12-18T03:36:11;99244.47;;;-6.89;69.75
9746;BME280;4912;50.836;12.958;2022-12-18T03:38:41;99250.19;;;-6.90;69.61
9746;BME280;4912;50.836;12.958;2022-12-18T03:41:17;99248.91;;;-6.93;69.80
9746;BME280;4912;50.836;12.958;2022-12-18T03:44:16;99249.22;;;-6.94;69.68
9746;BME280;4912;50.836;12.958;2022-12-18T03:46:59;99238.00;;;-6.96;69.95
9746;BME280;4912;50.836;12.958;2022-12-18T03:49:36;99244.97;;;-6.95;70.36
9746;BME280;4912;50.836;12.958;2022-12-18T03:52:12;99247.66;;;-6.95;70.58
9746;BME280;4912;50.836;12.958;2022-12-18T03:54:47;99254.59;;;-6.94;70.94
9746;BME280;4912;50.836;12.958;2022-12-18T03:57:20;99256.19;;;-6.93;70.99
9746;BME280;4912;50.836;12.958;2022-12-18T03:59:57;99258.25;;;-6.99;71.28
9746;BME280;4912;50.836;12.958;2022-12-18T04:02:45;99258.41;;;-6.95;71.48
9746;BME280;4912;50.836;12.958;2022-12-18T04:05:25;99254.94;;;-6.96;70.88
9746;BME280;4912;50.836;12.958;2022-12-18T04:07:57;99262.22;;;-6.96;70.45
9746;BME280;4912;50.836;12.958;2022-12-18T04:10:29;99263.81;;;-6.95;70.57
9746;BME280;4912;50.836;12.958;2022-12-18T04:13:01;99261.72;;;-6.98;70.52
9746;BME280;4912;50.836;12.958;2022-12-18T04:15:34;99254.31;;;-7.01;70.17
9746;BME280;4912;50.836;12.958;2022-12-18T04:18:11;99267.88;;;-7.07;69.84
9746;BME280;4912;50.836;12.958;2022-12-18T04:20:43;99262.34;;;-7.10;70.04
9746;BME280;4912;50.836;12.958;2022-12-18T04:23:13;99264.25;;;-7.11;69.43
9746;BME280;4912;50.836;12.958;2022-12-18T04:25:45;99267.25;;;-7.12;69.22
9746;BME280;4912;50.836;12.958;2022-12-18T04:28:30;99263.31;;;-7.15;69.02
9746;BME280;4912;50.836;12.958;2022-12-18T04:31:00;99272.00;;;-7.18;68.45
9746;BME280;4912;50.836;12.958;2022-12-18T04:33:33;99267.25;;;-7.21;68.02
9746;BME280;4912;50.836;12.958;2022-12-18T04:36:05;99273.91;;;-7.27;68.07
9746;BME280;4912;50.836;12.958;2022-12-18T04:38:37;99271.81;;;-7.30;68.17
9746;BME280;4912;50.836;12.958;2022-12-18T04:41:12;99280.53;;;-7.33;68.34
9746;BME280;4912;50.836;12.958;2022-12-18T04:43:46;99278.94;;;-7.34;68.26
9746;BME280;4912;50.836;12.958;2022-12-18T04:46:16;99272.47;;;-7.33;68.54
9746;BME280;4912;50.836;12.958;2022-12-18T04:48:49;99272.94;;;-7.31;68.90
9746;BME280;4912;50.836;12.958;2022-12-18T04:51:20;99266.28;;;-7.33;68.87
9746;BME280;4912;50.836;12.958;2022-12-18T04:53:53;99256.31;;;-7.33;69.24
9746;BME280;4912;50.836;12.958;2022-12-18T04:56:23;99262.31;;;-7.36;69.19
9746;BME280;4912;50.836;12.958;2022-12-18T04:58:54;99256.78;;;-7.39;69.58
9746;BME280;4912;50.836;12.958;2022-12-18T05:01:24;99265.16;;;-7.41;69.71
9746;BME280;4912;50.836;12.958;2022-12-18T05:04:03;99267.84;;;-7.41;69.38
9746;BME280;4912;50.836;12.958;2022-12-18T05:06:34;99266.59;;;-7.43;69.01
9746;BME280;4912;50.836;12.958;2022-12-18T05:09:04;99259.31;;;-7.43;68.90
9746;BME280;4912;50.836;12.958;2022-12-18T05:11:35;99251.88;;;-7.46;68.86
9746;BME280;4912;50.836;12.958;2022-12-18T05:14:06;99255.34;;;-7.46;69.00
9746;BME280;4912;50.836;12.958;2022-12-18T05:16:36;99258.69;;;-7.49;69.04
9746;BME280;4912;50.836;12.958;2022-12-18T05:19:09;99273.22;;;-7.50;69.07
9746;BME280;4912;50.836;12.958;2022-12-18T05:21:40;99283.66;;;-7.48;69.23
9746;BME280;4912;50.836;12.958;2022-12-18T05:24:11;99278.91;;;-7.51;69.06
9746;BME280;4912;50.836;12.958;2022-12-18T05:26:42;99269.91;;;-7.55;69.01
9746;BME280;4912;50.836;12.958;2022-12-18T05:29:12;99273.84;;;-7.53;69.18
9746;BME280;4912;50.836;12.958;2022-12-18T05:31:43;99273.53;;;-7.51;68.92
9746;BME280;4912;50.836;12.958;2022-12-18T05:34:16;99277.00;;;-7.51;69.32
9746;BME280;4912;50.836;12.958;2022-12-18T05:36:46;99272.72;;;-7.52;69.37
9746;BME280;4912;50.836;12.958;2022-12-18T05:39:17;99277.81;;;-7.50;69.36
9746;BME280;4912;50.836;12.958;2022-12-18T05:41:47;99271.63;;;-7.51;69.57
9746;BME280;4912;50.836;12.958;2022-12-18T05:44:18;99268.94;;;-7.51;69.75
9746;BME280;4912;50.836;12.958;2022-12-18T05:46:48;99276.84;;;-7.54;70.25
9746;BME280;4912;50.836;12.958;2022-12-18T05:49:21;99274.16;;;-7.54;70.57
9746;BME280;4912;50.836;12.958;2022-12-18T05:51:51;99277.16;;;-7.56;70.51
9746;BME280;4912;50.836;12.958;2022-12-18T05:54:22;99271.47;;;-7.54;70.14
9746;BME280;4912;50.836;12.958;2022-12-18T05:56:52;99274.16;;;-7.54;69.86
9746;BME280;4912;50.836;12.958;2022-12-18T05:59:23;99277.47;;;-7.57;69.79
9746;BME280;4912;50.836;12.958;2022-12-18T06:01:53;99284.44;;;-7.56;69.75
9746;BME280;4912;50.836;12.958;2022-12-18T06:04:26;99284.91;;;-7.54;69.63
9746;BME280;4912;50.836;12.958;2022-12-18T06:06:58;99292.97;;;-7.54;70.17
9746;BME280;4912;50.836;12.958;2022-12-18T06:09:29;99294.09;;;-7.47;71.09
9746;BME280;4912;50.836;12.958;2022-12-18T06:11:59;99305.16;;;-7.48;70.22
9746;BME280;4912;50.836;12.958;2022-12-18T06:14:30;99316.88;;;-7.44;70.43
9746;BME280;4912;50.836;12.958;2022-12-18T06:17:00;99312.44;;;-7.40;70.55
9746;BME280;4912;50.836;12.958;2022-12-18T06:19:33;99316.38;;;-7.46;70.83
9746;BME280;4912;50.836;12.958;2022-12-18T06:22:03;99310.22;;;-7.47;71.15
9746;BME280;4912;50.836;12.958;2022-12-18T06:24:34;99304.53;;;-7.45;71.31
9746;BME280;4912;50.836;12.958;2022-12-18T06:27:04;99303.75;;;-7.46;70.79
9746;BME280;4912;50.836;12.958;2022-12-18T06:29:34;99317.81;;;-7.49;70.21
9746;BME280;4912;50.836;12.958;2022-12-18T06:32:05;99317.66;;;-7.43;70.14
9746;BME280;4912;50.836;12.958;2022-12-18T06:34:39;99312.09;;;-7.47;69.39
9746;BME280;4912;50.836;12.958;2022-12-18T06:37:10;99313.69;;;-7.46;69.51
9746;BME280;4912;50.836;12.958;2022-12-18T06:39:40;99309.75;;;-7.49;69.16
9746;BME280;4912;50.836;12.958;2022-12-18T06:42:11;99315.28;;;-7.45;68.98
9746;BME280;4912;50.836;12.958;2022-12-18T06:44:41;99322.72;;;-7.42;69.49
9746;BME280;4912;50.836;12.958;2022-12-18T06:47:12;99326.69;;;-7.39;69.74
9746;BME280;4912;50.836;12.958;2022-12-18T06:49:45;99328.56;;;-7.40;69.86
9746;BME280;4912;50.836;12.958;2022-12-18T06:52:16;99329.06;;;-7.38;71.40
9746;BME280;4912;50.836;12.958;2022-12-18T06:54:46;99332.22;;;-7.36;72.70
9746;BME280;4912;50.836;12.958;2022-12-18T06:57:18;99332.41;;;-7.24;74.31
9746;BME280;4912;50.836;12.958;2022-12-18T06:59:48;99324.69;;;-7.08;75.81
9746;BME280;4912;50.836;12.958;2022-12-18T07:02:19;99329.63;;;-7.01;76.52
9746;BME280;4912;50.836;12.958;2022-12-18T07:04:52;99320.13;;;-6.90;77.46
9746;BME280;4912;50.836;12.958;2022-12-18T07:07:22;99316.66;;;-6.74;77.79
9746;BME280;4912;50.836;12.958;2022-12-18T07:09:53;99316.94;;;-6.58;77.95
9746;BME280;4912;50.836;12.958;2022-12-18T07:12:23;99307.44;;;-6.47;77.64
9746;BME280;4912;50.836;12.958;2022-12-18T07:14:53;99307.91;;;-6.36;77.29
9746;BME280;4912;50.836;12.958;2022-12-18T07:17:23;99311.69;;;-6.29;77.07
9746;BME280;4912;50.836;12.958;2022-12-18T07:19:56;99307.09;;;-6.19;76.98
9746;BME280;4912;50.836;12.958;2022-12-18T07:22:27;99308.94;;;-6.11;76.75
9746;BME280;4912;50.836;12.958;2022-12-18T07:24:58;99317.03;;;-6.03;76.69
9746;BME280;4912;50.836;12.958;2022-12-18T07:27:28;99314.94;;;-5.97;76.36
9746;BME280;4912;50.836;12.958;2022-12-18T07:29:58;99316.16;;;-5.86;76.15
9746;BME280;4912;50.836;12.958;2022-12-18T07:32:30;99326.56;;;-5.76;76.19
9746;BME280;4912;50.836;12.958;2022-12-18T07:35:04;99326.06;;;-5.69;76.47
9746;BME280;4912;50.836;12.958;2022-12-18T07:37:35;99334.44;;;-5.62;76.51
9746;BME280;4912;50.836;12.958;2022-12-18T07:40:07;99327.88;;;-5.53;76.14
9746;BME280;4912;50.836;12.958;2022-12-18T07:42:38;99332.00;;;-5.47;75.77
9746;BME280;4912;50.836;12.958;2022-12-18T07:45:09;99336.09;;;-5.41;75.46
9746;BME280;4912;50.836;12.958;2022-12-18T07:47:40;99330.97;;;-5.33;75.23
9746;BME280;4912;50.836;12.958;2022-12-18T07:50:13;99338.06;;;-5.20;75.35
9746;BME280;4912;50.836;12.958;2022-12-18T07:52:44;99337.66;;;-5.10;74.74
9746;BME280;4912;50.836;12.958;2022-12-18T07:55:14;99335.88;;;-5.06;74.84
9746;BME280;4912;50.836;12.958;2022-12-18T07:57:45;99335.53;;;-4.96;74.49
9746;BME280;4912;50.836;12.958;2022-12-18T08:00:18;99330.84;;;-4.87;74.39
9746;BME280;4912;50.836;12.958;2022-12-18T08:02:49;99331.91;;;-4.79;74.28
9746;BME280;4912;50.836;12.958;2022-12-18T08:05:22;99332.97;;;-4.72;74.38
9746;BME280;4912;50.836;12.958;2022-12-18T08:07:53;99329.06;;;-4.62;74.21
9746;BME280;4912;50.836;12.958;2022-12-18T08:10:24;99336.44;;;-4.50;73.91
9746;BME280;4912;50.836;12.958;2022-12-18T08:12:54;99330.31;;;-4.39;73.96
9746;BME280;4912;50.836;12.958;2022-12-18T08:15:30;99336.75;;;-4.31;73.45
9746;BME280;4912;50.836;12.958;2022-12-18T08:18:01;99339.50;;;-4.19;72.99
9746;BME280;4912;50.836;12.958;2022-12-18T08:20:39;99336.97;;;-4.03;72.65
9746;BME280;4912;50.836;12.958;2022-12-18T08:23:10;99339.00;;;-3.88;72.25
9746;BME280;4912;50.836;12.958;2022-12-18T08:25:40;99341.75;;;-3.76;71.71
9746;BME280;4912;50.836;12.958;2022-12-18T08:28:11;99345.50;;;-3.56;71.25
9746;BME280;4912;50.836;12.958;2022-12-18T08:30:41;99355.66;;;-3.41;70.88
9746;BME280;4912;50.836;12.958;2022-12-18T08:33:12;99352.06;;;-3.21;70.11
9746;BME280;4912;50.836;12.958;2022-12-18T08:35:45;99348.63;;;-2.94;69.35
9746;BME280;4912;50.836;12.958;2022-12-18T08:38:16;99350.88;;;-2.71;68.31
9746;BME280;4912;50.836;12.958;2022-12-18T08:40:46;99359.97;;;-2.52;67.78
9746;BME280;4912;50.836;12.958;2022-12-18T08:43:17;99360.22;;;-2.29;66.64
9746;BME280;4912;50.836;12.958;2022-12-18T08:46:09;99358.84;;;-1.95;65.24
9746;BME280;4912;50.836;12.958;2022-12-18T08:48:39;99355.13;;;-1.75;64.42
9746;BME280;4912;50.836;12.958;2022-12-18T08:51:13;99352.13;;;-1.85;64.08
9746;BME280;4912;50.836;12.958;2022-12-18T08:53:46;99354.34;;;-1.59;64.15
9746;BME280;4912;50.836;12.958;2022-12-18T08:56:16;99347.94;;;-1.20;62.73
9746;BME280;4912;50.836;12.958;2022-12-18T08:58:47;99347.91;;;-0.89;61.47
9746;BME280;4912;50.836;12.958;2022-12-18T09:01:17;99346.31;;;-0.55;60.39
9746;BME280;4912;50.836;12.958;2022-12-18T09:03:48;99354.13;;;-0.53;58.93
9746;BME280;4912;50.836;12.958;2022-12-18T09:06:22;99351.47;;;-0.50;59.29
9746;BME280;4912;50.836;12.958;2022-12-18T09:08:53;99347.78;;;-0.42;59.40
9746;BME280;4912;50.836;12.958;2022-12-18T09:11:25;99353.47;;;-0.27;58.57
9746;BME280;4912;50.836;12.958;2022-12-18T09:13:57;99357.78;;;-0.07;58.22
9746;BME280;4912;50.836;12.958;2022-12-18T09:16:29;99354.38;;;0.19;57.19
9746;BME280;4912;50.836;12.958;2022-12-18T09:19:03;99366.31;;;0.79;55.76
9746;BME280;4912;50.836;12.958;2022-12-18T09:21:37;99360.16;;;1.94;52.85
9746;BME280;4912;50.836;12.958;2022-12-18T09:24:17;99347.75;;;2.81;49.97
9746;BME280;4912;50.836;12.958;2022-12-18T09:26:47;99361.03;;;3.34;47.45
9746;BME280;4912;50.836;12.958;2022-12-18T09:29:23;99353.47;;;3.86;46.63
9746;BME280;4912;50.836;12.958;2022-12-18T09:31:54;99359.41;;;4.09;44.98
9746;BME280;4912;50.836;12.958;2022-12-18T09:34:24;99358.66;;;4.12;44.46
9746;BME280;4912;50.836;12.958;2022-12-18T09:36:57;99350.44;;;4.12;44.45
9746;BME280;4912;50.836;12.958;2022-12-18T09:39:36;99344.25;;;4.50;43.73
9746;BME280;4912;50.836;12.958;2022-12-18T09:42:16;99345.81;;;4.59;42.48
9746;BME280;4912;50.836;12.958;2022-12-18T09:44:52;99339.88;;;4.25;42.88
9746;BME280;4912;50.836;12.958;2022-12-18T09:47:27;99334.31;;;3.96;43.29
9746;BME280;4912;50.836;12.958;2022-12-18T09:50:03;99321.56;;;3.39;43.87
9746;BME280;4912;50.836;12.958;2022-12-18T09:52:48;99316.69;;;3.07;45.00
9746;BME280;4912;50.836;12.958;2022-12-18T09:55:24;99321.28;;;2.96;45.68
9746;BME280;4912;50.836;12.958;2022-12-18T09:58:07;99316.47;;;2.79;45.98
9746;BME280;4912;50.836;12.958;2022-12-18T10:00:43;99311.09;;;2.89;45.96
9746;BME280;4912;50.836;12.958;2022-12-18T10:03:15;99302.53;;;2.95;45.53
9746;BME280;4912;50.836;12.958;2022-12-18T10:05:53;99294.53;;;3.23;45.50
9746;BME280;4912;50.836;12.958;2022-12-18T10:08:38;99296.72;;;3.76;44.54
9746;BME280;4912;50.836;12.958;2022-12-18T10:11:25;99296.06;;;4.35;43.16
9746;BME280;4912;50.836;12.958;2022-12-18T10:14:08;99281.97;;;4.79;41.57
9746;BME280;4912;50.836;12.958;2022-12-18T10:16:47;99290.16;;;5.11;41.17
9746;BME280;4912;50.836;12.958;2022-12-18T10:19:34;99278.00;;;5.23;40.31
9746;BME280;4912;50.836;12.958;2022-12-18T10:22:37;99283.53;;;4.98;40.51
9746;BME280;4912;50.836;12.958;2022-12-18T10:25:22;99278.06;;;4.52;41.18
9746;BME280;4912;50.836;12.958;2022-12-18T10:27:58;99270.63;;;4.17;42.07
9746;BME280;4912;50.836;12.958;2022-12-18T10:30:30;99273.69;;;3.98;42.40
9746;BME280;4912;50.836;12.958;2022-12-18T10:33:01;99263.13;;;3.93;42.71
9746;BME280;4912;50.836;12.958;2022-12-18T10:35:31;99256.88;;;3.92;42.50
9746;BME280;4912;50.836;12.958;2022-12-18T10:38:05;99259.19;;;3.87;42.04
9746;BME280;4912;50.836;12.958;2022-12-18T10:40:51;99254.16;;;3.99;42.20
9746;BME280;4912;50.836;12.958;2022-12-18T10:43:25;99264.34;;;4.17;41.65
9746;BME280;4912;50.836;12.958;2022-12-18T10:46:15;99260.84;;;4.37;41.66
9746;BME280;4912;50.836;12.958;2022-12-18T10:48:54;99260.03;;;4.26;41.31
9746;BME280;4912;50.836;12.958;2022-12-18T10:51:28;99258.47;;;4.15;41.76
9746;BME280;4912;50.836;12.958;2022-12-18T10:54:02;99256.88;;;4.03;41.80
9746;BME280;4912;50.836;12.958;2022-12-18T10:56:38;99260.84;;;4.23;41.99
9746;BME280;4912;50.836;12.958;2022-12-18T10:59:11;99259.66;;;4.60;41.07
9746;BME280;4912;50.836;12.958;2022-12-18T11:01:48;99263.09;;;5.13;39.81
9746;BME280;4912;50.836;12.958;2022-12-18T11:04:23;99252.88;;;5.28;38.81
9746;BME280;4912;50.836;12.958;2022-12-18T11:06:57;99237.25;;;5.07;39.47
9746;BME280;4912;50.836;12.958;2022-12-18T11:09:31;99245.44;;;5.28;39.39
9746;BME280;4912;50.836;12.958;2022-12-18T11:12:14;99237.84;;;5.61;38.39
9746;BME280;4912;50.836;12.958;2022-12-18T11:14:47;99233.91;;;6.31;37.32
9746;BME280;4912;50.836;12.958;2022-12-18T11:17:20;99224.53;;;7.11;35.60
9746;BME280;4912;50.836;12.958;2022-12-18T11:19:54;99227.09;;;7.89;34.06
9746;BME280;4912;50.836;12.958;2022-12-18T11:22:27;99238.38;;;8.75;33.26
9746;BME280;4912;50.836;12.958;2022-12-18T11:25:00;99217.28;;;9.48;32.09
9746;BME280;4912;50.836;12.958;2022-12-18T11:27:56;99224.06;;;10.35;30.65
9746;BME280;4912;50.836;12.958;2022-12-18T11:30:30;99217.44;;;10.93;29.44
9746;BME280;4912;50.836;12.958;2022-12-18T11:33:05;99218.31;;;11.19;28.36
9746;BME280;4912;50.836;12.958;2022-12-18T11:35:44;99220.81;;;11.71;27.48
9746;BME280;4912;50.836;12.958;2022-12-18T11:38:21;99225.53;;;12.12;27.34
9746;BME280;4912;50.836;12.958;2022-12-18T11:40:58;99222.66;;;12.28;26.67
9746;BME280;4912;50.836;12.958;2022-12-18T11:43:37;99234.63;;;12.38;26.40
9746;BME280;4912;50.836;12.958;2022-12-18T11:46:11;99239.06;;;11.98;25.99
9746;BME280;4912;50.836;12.958;2022-12-18T11:48:49;99246.38;;;10.76;27.24
9746;BME280;4912;50.836;12.958;2022-12-18T11:51:30;99246.63;;;11.68;26.96
9746;BME280;4912;50.836;12.958;2022-12-18T11:54:11;99264.59;;;10.90;26.55
9746;BME280;4912;50.836;12.958;2022-12-18T11:56:48;99256.59;;;10.31;27.95
9746;BME280;4912;50.836;12.958;2022-12-18T11:59:31;99255.09;;;9.31;29.23
9746;BME280;4912;50.836;12.958;2022-12-18T12:02:21;99262.94;;;8.16;30.48
9746;BME280;4912;50.836;12.958;2022-12-18T12:05:18;99263.00;;;7.18;31.85
9746;BME280;4912;50.836;12.958;2022-12-18T12:08:01;99275.34;;;6.54;33.36
9746;BME280;4912;50.836;12.958;2022-12-18T12:10:48;99273.31;;;6.10;33.73
9746;BME280;4912;50.836;12.958;2022-12-18T12:13:37;99259.38;;;5.66;34.95
9746;BME280;4912;50.836;12.958;2022-12-18T12:16:22;99255.97;;;5.37;35.48
9746;BME280;4912;50.836;12.958;2022-12-18T12:19:05;99259.94;;;5.25;36.27
9746;BME280;4912;50.836;12.958;2022-12-18T12:21:50;99262.97;;;5.59;35.61
9746;BME280;4912;50.836;12.958;2022-12-18T12:24:35;99266.22;;;6.16;35.06
9746;BME280;4912;50.836;12.958;2022-12-18T12:27:19;99264.34;;;6.54;34.24
9746;BME280;4912;50.836;12.958;2022-12-18T12:30:02;99260.06;;;7.32;32.77
9746;BME280;4912;50.836;12.958;2022-12-18T12:32:54;99252.25;;;7.61;31.75
9746;BME280;4912;50.836;12.958;2022-12-18T12:35:47;99247.16;;;7.25;31.95
9746;BME280;4912;50.836;12.958;2022-12-18T12:38:26;99244.66;;;7.04;32.20
9746;BME280;4912;50.836;12.958;2022-12-18T12:41:01;99252.38;;;8.38;31.26
9746;BME280;4912;50.836;12.958;2022-12-18T12:43:55;99247.13;;;9.92;28.70
9746;BME280;4912;50.836;12.958;2022-12-18T12:46:27;99244.38;;;8.93;28.92
9746;BME280;4912;50.836;12.958;2022-12-18T12:49:11;99236.63;;;8.85;29.27
9746;BME280;4912;50.836;12.958;2022-12-18T12:51:46;99237.47;;;10.00;28.24
9746;BME280;4912;50.836;12.958;2022-12-18T12:54:25;99241.72;;;9.29;27.89
9746;BME280;4912;50.836;12.958;2022-12-18T12:57:01;99231.81;;;9.12;29.13
9746;BME280;4912;50.836;12.958;2022-12-18T12:59:41;99234.94;;;8.44;29.76
9746;BME280;4912;50.836;12.958;2022-12-18T13:02:21;99231.16;;;8.08;30.83
9746;BME280;4912;50.836;12.958;2022-12-18T13:05:01;99236.56;;;7.58;31.53
9746;BME280;4912;50.836;12.958;2022-12-18T13:07:37;99235.94;;;7.13;32.38
9746;BME280;4912;50.836;12.958;2022-12-18T13:13:06;99242.09;;;5.76;34.60
9746;BME280;4912;50.836;12.958;2022-12-18T13:15:42;99236.03;;;5.29;35.75
9746;BME280;4912;50.836;12.958;2022-12-18T13:18:18;99235.69;;;5.10;36.44
9746;BME280;4912;50.836;12.958;2022-12-18T13:21:11;99248.28;;;4.93;36.50
9746;BME280;4912;50.836;12.958;2022-12-18T13:23:48;99248.28;;;4.82;37.32
9746;BME280;4912;50.836;12.958;2022-12-18T13:26:39;99234.22;;;4.41;38.50
9746;BME280;4912;50.836;12.958;2022-12-18T13:29:09;99229.91;;;4.08;39.54
9746;BME280;4912;50.836;12.958;2022-12-18T13:32:16;99232.13;;;3.53;39.96
9746;BME280;4912;50.836;12.958;2022-12-18T13:38:23;99221.81;;;3.15;41.52
9746;BME280;4912;50.836;12.958;2022-12-18T13:41:03;99208.00;;;2.90;41.83
9746;BME280;4912;50.836;12.958;2022-12-18T13:43:39;99214.84;;;2.59;42.30
9746;BME280;4912;50.836;12.958;2022-12-18T13:46:24;99215.53;;;2.49;42.75
9746;BME280;4912;50.836;12.958;2022-12-18T13:49:02;99217.06;;;2.43;42.92
9746;BME280;4912;50.836;12.958;2022-12-18T13:51:35;99219.28;;;2.27;42.92
9746;BME280;4912;50.836;12.958;2022-12-18T13:54:17;99221.78;;;2.02;44.25
9746;BME280;4912;50.836;12.958;2022-12-18T13:56:49;99220.31;;;1.71;44.57
9746;BME280;4912;50.836;12.958;2022-12-18T13:59:24;99230.31;;;1.56;45.09
9746;BME280;4912;50.836;12.958;2022-12-18T14:01:57;99224.66;;;1.39;45.92
9746;BME280;4912;50.836;12.958;2022-12-18T14:04:32;99210.66;;;1.40;45.69